createdAt,value
2022-11-05T00:01:34.603Z,9.80
2022-11-05T00:04:20.955Z,9.80
2022-11-05T00:07:07.498Z,9.80
2022-11-05T00:09:36.716Z,9.70
2022-11-05T00:12:24.972Z,9.70
2022-11-05T00:15:11.531Z,9.70
2022-11-05T00:17:41.732Z,9.70
2022-11-05T00:20:13.452Z,9.60
2022-11-05T00:22:59.549Z,9.60
2022-11-05T00:25:30.043Z,9.60
2022-11-05T00:28:02.655Z,9.60
2022-11-05T00:30:31.754Z,9.60
2022-11-05T00:33:04.948Z,9.60
2022-11-05T00:35:33.820Z,9.50
2022-11-05T00:38:02.739Z,9.50
2022-11-05T00:40:31.717Z,9.50
2022-11-05T00:43:18.044Z,9.50
2022-11-05T00:45:46.563Z,9.60
2022-11-05T00:48:34.021Z,9.50
2022-11-05T00:51:02.593Z,9.50
2022-11-05T00:53:31.103Z,9.50
2022-11-05T00:56:00.327Z,9.50
2022-11-05T00:58:29.308Z,9.50
2022-11-05T01:00:59.329Z,9.50
2022-11-05T01:03:31.336Z,9.50
2022-11-05T01:06:08.534Z,9.40
2022-11-05T01:08:37.040Z,9.40
2022-11-05T01:11:11.555Z,9.40
2022-11-05T01:13:41.086Z,9.40
2022-11-05T01:16:11.105Z,9.40
2022-11-05T01:18:40.978Z,9.40
2022-11-05T01:21:15.170Z,9.40
2022-11-05T01:23:44.094Z,9.40
2022-11-05T01:26:12.638Z,9.40
2022-11-05T01:28:41.406Z,9.40
2022-11-05T01:31:10.010Z,9.30
2022-11-05T01:33:39.838Z,9.30
2022-11-05T01:36:08.919Z,9.30
2022-11-05T01:38:39.025Z,9.30
2022-11-05T01:41:08.237Z,9.20
2022-11-05T01:43:48.289Z,9.20
2022-11-05T01:46:18.844Z,9.20
2022-11-05T01:48:52.786Z,9.20
2022-11-05T01:51:26.680Z,9.20
2022-11-05T01:54:00.983Z,9.20
2022-11-05T01:56:32.876Z,9.10
2022-11-05T01:59:04.578Z,9.10
2022-11-05T02:01:36.409Z,9.10
2022-11-05T02:04:11.231Z,9.00
2022-11-05T02:06:45.989Z,9.10
2022-11-05T02:09:20.935Z,9.00
2022-11-05T02:11:52.743Z,9.00
2022-11-05T02:14:21.312Z,9.00
2022-11-05T02:16:55.616Z,9.00
2022-11-05T02:20:06.284Z,8.90
2022-11-05T02:23:05.581Z,8.90
2022-11-05T02:26:05.607Z,8.90
2022-11-05T02:28:59.832Z,8.90
2022-11-05T02:31:36.660Z,8.90
2022-11-05T02:34:15.213Z,8.80
2022-11-05T02:36:50.190Z,8.80
2022-11-05T02:39:32.587Z,8.80
2022-11-05T02:42:09.237Z,8.80
2022-11-05T02:44:46.462Z,8.70
2022-11-05T02:47:25.349Z,8.70
2022-11-05T02:50:00.256Z,8.70
2022-11-05T02:52:36.881Z,8.70
2022-11-05T02:55:12.480Z,8.70
2022-11-05T02:57:46.087Z,8.70
2022-11-05T03:00:51.230Z,8.70
2022-11-05T03:03:29.827Z,8.60
2022-11-05T03:06:38.016Z,8.70
2022-11-05T03:09:39.521Z,8.60
2022-11-05T03:12:21.382Z,8.60
2022-11-05T03:14:59.049Z,8.70
2022-11-05T03:17:36.410Z,8.60
2022-11-05T03:20:17.448Z,8.60
2022-11-05T03:22:52.349Z,8.60
2022-11-05T03:25:25.221Z,8.60
2022-11-05T03:27:58.618Z,8.60
2022-11-05T03:30:27.910Z,8.70
2022-11-05T03:33:01.376Z,8.70
2022-11-05T03:35:36.242Z,8.60
2022-11-05T03:38:09.085Z,8.60
2022-11-05T03:40:40.335Z,8.60
2022-11-05T03:43:10.170Z,8.60
2022-11-05T03:45:46.414Z,8.60
2022-11-05T03:48:19.633Z,8.60
2022-11-05T03:50:57.978Z,8.50
2022-11-05T03:53:29.647Z,8.60
2022-11-05T03:56:03.552Z,8.50
2022-11-05T03:58:32.724Z,8.50
2022-11-05T04:01:03.040Z,8.50
2022-11-05T04:03:36.118Z,8.50
2022-11-05T04:06:25.659Z,8.40
2022-11-05T04:09:11.381Z,8.40
2022-11-05T04:11:57.651Z,8.40
2022-11-05T04:14:27.120Z,8.40
2022-11-05T04:17:06.893Z,8.40
2022-11-05T04:19:53.703Z,8.40
2022-11-05T04:22:41.696Z,8.40
2022-11-05T04:25:10.788Z,8.40
2022-11-05T04:27:39.372Z,8.40
2022-11-05T04:30:19.471Z,8.30
2022-11-05T04:33:02.984Z,8.30
2022-11-05T04:35:33.495Z,8.30
2022-11-05T04:38:04.250Z,8.20
2022-11-05T04:40:33.161Z,8.20
2022-11-05T04:43:02.174Z,8.20
2022-11-05T04:45:34.248Z,8.20
2022-11-05T04:48:02.981Z,8.20
2022-11-05T04:50:31.976Z,8.10
2022-11-05T04:53:00.847Z,8.10
2022-11-05T04:55:31.196Z,8.10
2022-11-05T04:57:59.796Z,8.00
2022-11-05T05:00:28.382Z,8.00
2022-11-05T05:02:57.019Z,8.00
2022-11-05T05:05:25.552Z,8.00
2022-11-05T05:07:54.082Z,8.00
2022-11-05T05:10:22.587Z,7.90
2022-11-05T05:12:52.619Z,7.90
2022-11-05T05:15:21.142Z,7.90
2022-11-05T05:17:52.209Z,7.90
2022-11-05T05:20:38.720Z,7.90
2022-11-05T05:23:07.259Z,7.90
2022-11-05T05:25:35.767Z,7.80
2022-11-05T05:28:05.844Z,7.80
2022-11-05T05:30:34.303Z,7.80
2022-11-05T05:33:04.389Z,7.80
2022-11-05T05:35:32.948Z,7.70
2022-11-05T05:38:01.442Z,7.70
2022-11-05T05:40:29.954Z,7.70
2022-11-05T05:42:58.417Z,7.60
2022-11-05T05:45:28.324Z,7.60
2022-11-05T05:47:57.033Z,7.60
2022-11-05T05:50:25.520Z,7.50
2022-11-05T05:52:54.061Z,7.50
2022-11-05T05:55:22.567Z,7.50
2022-11-05T05:57:51.108Z,7.40
2022-11-05T06:00:19.804Z,7.40
2022-11-05T06:02:49.792Z,7.40
2022-11-05T06:05:18.374Z,7.30
2022-11-05T06:07:46.906Z,7.40
2022-11-05T06:10:15.650Z,7.30
2022-11-05T06:12:44.188Z,7.30
2022-11-05T06:15:12.866Z,7.30
2022-11-05T06:17:41.327Z,7.30
2022-11-05T06:20:12.613Z,7.20
2022-11-05T06:22:41.281Z,7.20
2022-11-05T06:25:10.766Z,7.20
2022-11-05T06:27:39.251Z,7.20
2022-11-05T06:30:09.131Z,7.10
2022-11-05T06:32:37.667Z,7.10
2022-11-05T06:35:06.746Z,7.10
2022-11-05T06:37:36.633Z,7.10
2022-11-05T06:40:07.896Z,7.10
2022-11-05T06:42:36.754Z,7.00
2022-11-05T06:45:06.087Z,7.00
2022-11-05T06:47:34.733Z,6.90
2022-11-05T06:50:03.272Z,6.90
2022-11-05T06:52:34.807Z,6.90
2022-11-05T06:55:18.835Z,6.80
2022-11-05T06:57:47.352Z,6.90
2022-11-05T07:00:16.749Z,6.80
2022-11-05T07:02:45.596Z,6.90
2022-11-05T07:05:14.843Z,6.90
2022-11-05T07:07:45.009Z,6.90
2022-11-05T07:10:16.679Z,6.90
2022-11-05T07:12:45.453Z,6.90
2022-11-05T07:15:14.410Z,6.90
2022-11-05T07:17:43.050Z,6.90
2022-11-05T07:20:12.485Z,6.80
2022-11-05T07:22:41.139Z,6.80
2022-11-05T07:25:10.263Z,6.80
2022-11-05T07:27:40.665Z,6.80
2022-11-05T07:30:11.360Z,6.80
2022-11-05T07:32:40.587Z,6.80
2022-11-05T07:35:12.402Z,6.80
2022-11-05T07:37:44.763Z,6.80
2022-11-05T07:40:14.704Z,6.80
2022-11-05T07:42:44.986Z,6.70
2022-11-05T07:45:13.960Z,6.80
2022-11-05T07:47:48.682Z,6.80
2022-11-05T07:50:18.551Z,6.70
2022-11-05T07:52:47.951Z,6.80
2022-11-05T07:55:17.679Z,6.70
2022-11-05T07:57:48.955Z,6.80
2022-11-05T08:00:19.962Z,6.80
2022-11-05T08:03:02.298Z,6.80
2022-11-05T08:05:40.315Z,6.80
2022-11-05T08:08:10.409Z,6.80
2022-11-05T08:10:39.715Z,6.90
2022-11-05T08:13:11.187Z,6.90
2022-11-05T08:15:42.280Z,7.00
2022-11-05T08:18:13.859Z,7.10
2022-11-05T08:20:43.951Z,7.10
2022-11-05T08:23:13.004Z,7.20
2022-11-05T08:25:42.180Z,7.20
2022-11-05T08:28:14.081Z,7.30
2022-11-05T08:30:42.596Z,7.30
2022-11-05T08:33:13.925Z,7.40
2022-11-05T08:35:42.747Z,7.40
2022-11-05T08:38:13.997Z,7.50
2022-11-05T08:40:43.352Z,7.50
2022-11-05T08:43:15.081Z,7.60
2022-11-05T08:45:43.727Z,7.70
2022-11-05T08:48:14.899Z,7.70
2022-11-05T08:50:44.073Z,7.80
2022-11-05T08:53:13.519Z,7.80
2022-11-05T08:55:43.381Z,7.90
2022-11-05T08:58:16.973Z,8.00
2022-11-05T09:00:47.616Z,8.00
2022-11-05T09:03:16.767Z,8.10
2022-11-05T09:05:45.525Z,8.10
2022-11-05T09:08:15.616Z,8.20
2022-11-05T09:10:45.132Z,8.30
2022-11-05T09:13:19.362Z,8.40
2022-11-05T09:15:49.781Z,8.50
2022-11-05T09:18:19.796Z,8.50
2022-11-05T09:20:48.984Z,8.60
2022-11-05T09:23:17.866Z,8.70
2022-11-05T09:25:47.196Z,8.80
2022-11-05T09:28:19.085Z,8.80
2022-11-05T09:30:49.421Z,8.90
2022-11-05T09:33:19.423Z,8.90
2022-11-05T09:35:48.255Z,9.00
2022-11-05T09:38:17.046Z,9.10
2022-11-05T09:40:51.402Z,9.10
2022-11-05T09:43:31.201Z,9.20
2022-11-05T09:46:04.208Z,9.30
2022-11-05T09:48:35.310Z,9.40
2022-11-05T09:51:06.034Z,9.50
2022-11-05T09:53:41.494Z,9.50
2022-11-05T09:56:21.672Z,9.60
2022-11-05T09:58:58.379Z,9.70
2022-11-05T10:01:31.543Z,9.80
2022-11-05T10:04:03.669Z,9.80
2022-11-05T10:06:32.570Z,9.90
2022-11-05T10:09:06.556Z,9.90
2022-11-05T10:11:38.802Z,10.10
2022-11-05T10:14:24.543Z,10.10
2022-11-05T10:16:57.730Z,10.10
2022-11-05T10:19:29.659Z,10.20
2022-11-05T10:22:10.215Z,10.30
2022-11-05T10:24:41.859Z,10.30
2022-11-05T10:27:15.558Z,10.40
2022-11-05T10:29:46.240Z,10.50
2022-11-05T10:32:22.710Z,10.50
2022-11-05T10:34:52.959Z,10.60
2022-11-05T10:37:23.924Z,10.70
2022-11-05T10:39:52.606Z,10.70
2022-11-05T10:42:37.545Z,10.80
2022-11-05T10:45:16.467Z,10.80
2022-11-05T10:47:59.028Z,10.90
2022-11-05T10:50:29.931Z,10.90
2022-11-05T10:53:01.408Z,11.00
2022-11-05T10:55:31.752Z,11.00
2022-11-05T10:58:11.751Z,11.00
2022-11-05T11:00:42.215Z,11.10
2022-11-05T11:03:34.121Z,11.10
2022-11-05T11:06:07.582Z,11.10
2022-11-05T11:08:37.545Z,11.20
2022-11-05T11:11:11.620Z,11.30
2022-11-05T11:13:59.296Z,11.40
2022-11-05T11:16:33.126Z,11.40
2022-11-05T11:19:03.169Z,11.50
2022-11-05T11:21:32.967Z,11.60
2022-11-05T11:24:03.324Z,11.60
2022-11-05T11:26:34.690Z,11.70
2022-11-05T11:29:08.680Z,11.70
2022-11-05T11:31:41.323Z,11.70
2022-11-05T11:34:17.383Z,11.90
2022-11-05T11:36:48.038Z,11.90
2022-11-05T11:39:20.647Z,12.10
2022-11-05T11:41:53.618Z,12.20
2022-11-05T11:44:27.186Z,12.30
2022-11-05T11:47:01.912Z,12.30
2022-11-05T11:49:32.470Z,12.40
2022-11-05T11:52:04.257Z,12.40
2022-11-05T11:54:34.759Z,12.50
2022-11-05T11:57:03.580Z,12.60
2022-11-05T12:00:01.849Z,12.60
2022-11-05T12:02:47.100Z,12.70
2022-11-05T12:05:26.081Z,12.70
2022-11-05T12:07:57.990Z,12.70
2022-11-05T12:10:50.258Z,12.70
2022-11-05T12:14:04.209Z,12.70
2022-11-05T12:16:45.459Z,12.70
2022-11-05T12:19:24.913Z,12.70
2022-11-05T12:22:03.732Z,12.60
2022-11-05T12:24:58.807Z,12.60
2022-11-05T12:27:42.027Z,12.60
2022-11-05T12:30:15.027Z,12.50
2022-11-05T12:33:04.905Z,12.50
2022-11-05T12:35:57.408Z,12.50
2022-11-05T12:38:38.332Z,12.50
2022-11-05T12:41:17.743Z,12.50
2022-11-05T12:43:57.800Z,12.40
2022-11-05T12:46:34.417Z,12.40
2022-11-05T12:49:36.233Z,12.40
2022-11-05T12:52:23.215Z,12.30
2022-11-05T12:55:03.122Z,12.30
2022-11-05T12:57:35.537Z,12.30
2022-11-05T13:00:08.946Z,12.30
2022-11-05T13:02:42.009Z,12.30
2022-11-05T13:05:16.998Z,12.30
2022-11-05T13:07:54.176Z,12.30
2022-11-05T13:10:29.257Z,12.30
2022-11-05T13:13:03.398Z,12.30
2022-11-05T13:15:38.416Z,12.30
2022-11-05T13:18:11.913Z,12.30
2022-11-05T13:20:45.848Z,12.30
2022-11-05T13:23:24.087Z,12.30
2022-11-05T13:25:56.782Z,12.30
2022-11-05T13:28:35.027Z,12.30
2022-11-05T13:31:06.780Z,12.30
2022-11-05T13:33:38.896Z,12.30
2022-11-05T13:36:29.004Z,12.20
2022-11-05T13:39:09.258Z,12.20
2022-11-05T13:41:54.331Z,12.20
2022-11-05T13:44:50.726Z,12.20
2022-11-05T13:47:41.529Z,12.20
2022-11-05T13:50:50.299Z,12.20
2022-11-05T13:53:54.982Z,12.20
2022-11-05T13:56:39.387Z,12.20
2022-11-05T13:59:33.020Z,12.20
2022-11-05T14:02:05.213Z,12.20
2022-11-05T14:04:36.870Z,12.10
2022-11-05T14:07:13.555Z,12.10
2022-11-05T14:09:45.221Z,12.10
2022-11-05T14:12:24.362Z,12.10
2022-11-05T14:14:59.131Z,12.00
2022-11-05T14:17:32.929Z,12.00
2022-11-05T14:20:24.927Z,12.00
2022-11-05T14:22:54.680Z,12.00
2022-11-05T14:26:03.083Z,12.00
2022-11-05T14:28:45.515Z,11.90
2022-11-05T14:31:47.289Z,11.90
2022-11-05T14:34:40.876Z,11.90
2022-11-05T14:37:28.767Z,11.80
2022-11-05T14:40:01.402Z,11.80
2022-11-05T14:42:31.595Z,11.70
2022-11-05T14:45:06.462Z,11.80
2022-11-05T14:47:38.468Z,11.70
2022-11-05T14:50:12.654Z,11.70
2022-11-05T14:52:51.495Z,11.70
2022-11-05T14:55:29.876Z,11.60
2022-11-05T14:58:26.809Z,11.60
2022-11-05T15:00:57.637Z,11.50
2022-11-05T15:03:34.951Z,11.50
2022-11-05T15:06:21.791Z,11.50
2022-11-05T15:09:17.709Z,11.40
2022-11-05T15:12:02.400Z,11.40
2022-11-05T15:14:35.083Z,11.40
2022-11-05T15:17:17.172Z,11.30
2022-11-05T15:19:47.471Z,11.30
2022-11-05T15:22:27.849Z,11.30
2022-11-05T15:24:57.294Z,11.30
2022-11-05T15:27:42.659Z,11.20
2022-11-05T15:30:19.655Z,11.20
2022-11-05T15:32:49.640Z,11.10
2022-11-05T15:35:22.106Z,11.10
2022-11-05T15:37:55.931Z,11.00
2022-11-05T15:40:28.446Z,11.00
2022-11-05T15:43:10.681Z,11.00
2022-11-05T15:45:40.078Z,11.00
2022-11-05T15:48:20.158Z,10.90
2022-11-05T15:50:48.777Z,10.90
2022-11-05T15:53:44.079Z,10.80
2022-11-05T15:56:14.327Z,10.80
2022-11-05T15:58:48.640Z,10.80
2022-11-05T16:01:23.854Z,10.80
2022-11-05T16:03:55.408Z,10.70
2022-11-05T16:06:28.225Z,10.70
2022-11-05T16:08:57.099Z,10.70
2022-11-05T16:11:27.253Z,10.70
2022-11-05T16:14:15.016Z,10.60
2022-11-05T16:16:43.986Z,10.60
2022-11-05T16:19:40.145Z,10.60
2022-11-05T16:22:09.998Z,10.60
2022-11-05T16:24:38.610Z,10.60
2022-11-05T16:27:08.055Z,10.60
2022-11-05T16:29:40.338Z,10.60
2022-11-05T16:32:16.952Z,10.50
2022-11-05T16:34:50.736Z,10.50
2022-11-05T16:37:22.339Z,10.50
2022-11-05T16:39:51.105Z,10.50
2022-11-05T16:42:38.532Z,10.50
2022-11-05T16:45:09.273Z,10.50
2022-11-05T16:47:37.835Z,10.40
2022-11-05T16:50:19.013Z,10.40
2022-11-05T16:52:47.901Z,10.40
2022-11-05T16:55:19.815Z,10.40
2022-11-05T16:57:52.011Z,10.40
2022-11-05T17:00:22.211Z,10.40
2022-11-05T17:02:51.274Z,10.40
2022-11-05T17:05:24.084Z,10.40
2022-11-05T17:07:53.376Z,10.40
2022-11-05T17:10:23.343Z,10.40
2022-11-05T17:12:52.269Z,10.40
2022-11-05T17:15:24.362Z,10.40
2022-11-05T17:17:54.432Z,10.30
2022-11-05T17:20:39.455Z,10.30
2022-11-05T17:23:10.722Z,10.20
2022-11-05T17:25:40.209Z,10.20
2022-11-05T17:28:10.316Z,10.20
2022-11-05T17:30:41.702Z,10.10
2022-11-05T17:33:14.600Z,10.10
2022-11-05T17:35:44.849Z,10.10
2022-11-05T17:38:13.649Z,10.00
2022-11-05T17:40:42.708Z,10.00
2022-11-05T17:43:12.121Z,10.00
2022-11-05T17:45:45.174Z,10.00
2022-11-05T17:48:14.677Z,10.00
2022-11-05T17:50:46.444Z,10.00
2022-11-05T17:53:16.580Z,10.00
2022-11-05T17:55:46.334Z,10.00
2022-11-05T17:58:16.695Z,10.00
2022-11-05T18:00:45.981Z,10.00
2022-11-05T18:03:15.530Z,10.00
2022-11-05T18:05:45.735Z,10.00
2022-11-05T18:08:14.266Z,10.00
2022-11-05T18:10:43.244Z,10.00
2022-11-05T18:13:12.403Z,10.00
2022-11-05T18:15:41.912Z,10.00
2022-11-05T18:18:10.711Z,10.00
2022-11-05T18:20:39.831Z,10.00
2022-11-05T18:23:10.129Z,10.00
2022-11-05T18:25:40.964Z,10.00
2022-11-05T18:28:10.130Z,10.00
2022-11-05T18:30:40.513Z,10.00
2022-11-05T18:33:09.519Z,10.00
2022-11-05T18:35:42.508Z,10.00
2022-11-05T18:38:12.759Z,10.00
2022-11-05T18:40:41.290Z,10.60
2022-11-05T18:43:10.422Z,10.00
2022-11-05T18:45:39.150Z,9.90
2022-11-05T18:48:08.133Z,9.90
2022-11-05T18:50:36.666Z,9.90
2022-11-05T18:53:05.244Z,9.90
2022-11-05T18:55:35.276Z,9.90
2022-11-05T18:58:03.893Z,9.90
2022-11-05T19:00:32.747Z,9.90
2022-11-05T19:03:01.535Z,9.90
2022-11-05T19:05:31.109Z,9.90
2022-11-05T19:08:00.139Z,9.90
2022-11-05T19:10:29.041Z,9.90
2022-11-05T19:12:58.949Z,9.90
2022-11-05T19:15:27.611Z,9.90
2022-11-05T19:17:56.112Z,9.90
2022-11-05T19:20:24.596Z,9.90
2022-11-05T19:22:53.170Z,9.90
2022-11-05T19:25:21.691Z,9.90
2022-11-05T19:27:50.223Z,9.90
2022-11-05T19:30:20.259Z,9.80
2022-11-05T19:32:48.757Z,9.80
2022-11-05T19:35:17.421Z,9.80
2022-11-05T19:37:46.144Z,9.90
2022-11-05T19:40:14.690Z,9.80
2022-11-05T19:42:43.231Z,9.80
2022-11-05T19:45:38.131Z,9.80
2022-11-05T19:48:01.922Z,9.80
2022-11-05T19:50:30.425Z,9.80
2022-11-05T19:52:58.989Z,9.80
2022-11-05T19:55:27.517Z,9.80
2022-11-05T19:57:56.013Z,9.80
2022-11-05T20:00:24.649Z,9.80
2022-11-05T20:02:53.412Z,9.70
2022-11-05T20:05:23.517Z,9.70
2022-11-05T20:07:53.297Z,9.70
2022-11-05T20:10:22.277Z,9.70
2022-11-05T20:12:51.110Z,9.70
2022-11-05T20:15:20.098Z,9.70
2022-11-05T20:17:52.679Z,9.70
2022-11-05T20:20:22.914Z,9.70
2022-11-05T20:22:53.237Z,9.70
2022-11-05T20:25:21.836Z,9.70
2022-11-05T20:27:50.764Z,9.70
2022-11-05T20:30:19.831Z,9.70
2022-11-05T20:32:48.295Z,9.70
2022-11-05T20:35:16.832Z,9.70
2022-11-05T20:37:52.706Z,9.60
2022-11-05T20:40:22.611Z,9.60
2022-11-05T20:42:51.055Z,9.50
2022-11-05T20:45:19.737Z,9.60
2022-11-05T20:47:48.258Z,9.50
2022-11-05T20:50:17.160Z,9.50
2022-11-05T20:52:46.995Z,9.50
2022-11-05T20:55:15.612Z,9.50
2022-11-05T20:57:44.102Z,9.50
2022-11-05T21:00:14.436Z,9.50
2022-11-05T21:02:43.222Z,9.40
2022-11-05T21:05:11.879Z,9.40
2022-11-05T21:07:40.375Z,9.40
2022-11-05T21:10:10.652Z,9.40
2022-11-05T21:12:39.214Z,9.40
2022-11-05T21:15:09.303Z,9.30
2022-11-05T21:17:38.214Z,9.30
2022-11-05T21:20:07.523Z,9.30
2022-11-05T21:22:36.068Z,9.40
2022-11-05T21:25:05.096Z,9.40
2022-11-05T21:27:34.950Z,9.40
2022-11-05T21:30:06.009Z,9.40
2022-11-05T21:32:38.070Z,9.40
2022-11-05T21:35:07.235Z,9.40
2022-11-05T21:37:35.794Z,9.40
2022-11-05T21:40:04.392Z,9.40
2022-11-05T21:42:36.019Z,9.40
2022-11-05T21:45:05.029Z,9.40
2022-11-05T21:47:33.580Z,9.40
2022-11-05T21:50:02.075Z,9.40
2022-11-05T21:53:02.615Z,9.30
2022-11-05T21:55:48.768Z,9.30
2022-11-05T21:58:36.336Z,9.30
2022-11-05T22:01:05.040Z,9.30
2022-11-05T22:03:33.519Z,9.30
2022-11-05T22:06:01.983Z,9.30
2022-11-05T22:08:30.464Z,9.30
2022-11-05T22:10:59.008Z,9.30
2022-11-05T22:13:28.820Z,9.30
2022-11-05T22:15:57.743Z,9.30
2022-11-05T22:18:26.292Z,9.30
2022-11-05T22:20:54.899Z,9.40
2022-11-05T22:23:23.447Z,9.40
2022-11-05T22:25:58.857Z,9.40
2022-11-05T22:28:28.978Z,9.40
2022-11-05T22:30:57.576Z,9.40
2022-11-05T22:33:26.267Z,9.30
2022-11-05T22:35:54.790Z,9.30
2022-11-05T22:38:23.299Z,9.30
2022-11-05T22:40:51.815Z,9.30
2022-11-05T22:43:20.319Z,9.30
2022-11-05T22:45:50.246Z,9.30
2022-11-05T22:48:18.820Z,9.30
2022-11-05T22:50:47.378Z,9.30
2022-11-05T22:53:15.923Z,9.40
2022-11-05T22:55:44.420Z,9.40
2022-11-05T22:58:13.221Z,9.30
2022-11-05T23:00:42.212Z,9.30
2022-11-05T23:03:12.116Z,9.30
2022-11-05T23:05:40.879Z,9.20
2022-11-05T23:08:27.240Z,9.20
2022-11-05T23:11:13.388Z,9.20
2022-11-05T23:13:41.895Z,9.10
2022-11-05T23:16:27.905Z,9.20
2022-11-05T23:19:15.362Z,9.20
2022-11-05T23:22:01.519Z,9.20
2022-11-05T23:24:30.205Z,9.10
2022-11-05T23:26:58.759Z,9.30
2022-11-05T23:29:28.602Z,9.10
2022-11-05T23:32:14.505Z,9.10
2022-11-05T23:34:44.554Z,9.10
2022-11-05T23:37:30.756Z,9.10
2022-11-05T23:39:59.303Z,9.10
2022-11-05T23:42:45.364Z,9.10
2022-11-05T23:45:31.250Z,9.10
2022-11-05T23:48:18.288Z,9.10
2022-11-05T23:50:52.012Z,9.10
2022-11-05T23:53:21.161Z,9.10
2022-11-05T23:55:50.074Z,9.10
2022-11-05T23:58:18.994Z,9.00
